LGKZ/KZI METAR and TAF weather

Enter ICAO airport designator
Station Type Date Time Source
LGKZ METAR 2019/12/10 05:50 UTC NOAA

LGKZ 100550Z 34004KT 8000 FEW008 SCT025 BKN070 04/04 Q1010


Station Type Date Time Source
LGKZ Decoded METAR 2019/12/10 05:50 UTC NOAA

Kozani Airport , Greece (LGKZ) 40-18N 021-47E 627M
Dec 10, 2019 - 12:50 AM EST / 2019.12.10 0550 UTC
Wind: from the NNW (340 degrees) at 5 MPH (4 KT):0
Visibility: 4 mile(s):0
Sky conditions: mostly cloudy
Temperature: 39 F (4 C)
Dew Point: 39 F (4 C)
Relative Humidity: 100%
Pressure (altimeter): 29.83 in. Hg (1010 hPa)
ob: LGKZ 100550Z 34004KT 8000 FEW008 SCT025 BKN070 04/04 Q1010
cycle: 6

Station Type Date Time Source
LGKZ TAF UTC NOAA

Error!

Example: see airport list